sensor_id;sensor_type;location;lat;lon;timestamp;P1;durP1;ratioP1;P2;durP2;ratioP2
36215;SDS011;22257;52.232;21.084;2022-08-03T00:00:14;21.68;;;11.55;;
36215;SDS011;22257;52.232;21.084;2022-08-03T00:02:43;20.82;;;10.38;;
36215;SDS011;22257;52.232;21.084;2022-08-03T00:05:09;19.67;;;11.00;;
36215;SDS011;22257;52.232;21.084;2022-08-03T00:07:35;18.25;;;9.78;;
36215;SDS011;22257;52.232;21.084;2022-08-03T00:10:03;16.57;;;10.45;;
36215;SDS011;22257;52.232;21.084;2022-08-03T00:12:30;17.37;;;10.00;;
36215;SDS011;22257;52.232;21.084;2022-08-03T00:14:56;16.15;;;10.53;;
36215;SDS011;22257;52.232;21.084;2022-08-03T00:17:22;15.40;;;8.93;;
36215;SDS011;22257;52.232;21.084;2022-08-03T00:19:48;22.98;;;9.48;;
36215;SDS011;22257;52.232;21.084;2022-08-03T00:22:14;17.92;;;7.87;;
36215;SDS011;22257;52.232;21.084;2022-08-03T00:24:41;17.55;;;8.03;;
36215;SDS011;22257;52.232;21.084;2022-08-03T00:27:07;17.62;;;7.97;;
36215;SDS011;22257;52.232;21.084;2022-08-03T00:29:33;14.15;;;7.58;;
36215;SDS011;22257;52.232;21.084;2022-08-03T00:31:59;20.05;;;8.23;;
36215;SDS011;22257;52.232;21.084;2022-08-03T00:34:25;20.30;;;7.92;;
36215;SDS011;22257;52.232;21.084;2022-08-03T00:36:52;14.58;;;8.25;;
36215;SDS011;22257;52.232;21.084;2022-08-03T00:39:18;19.67;;;8.03;;
36215;SDS011;22257;52.232;21.084;2022-08-03T00:41:44;16.75;;;8.25;;
36215;SDS011;22257;52.232;21.084;2022-08-03T00:44:10;15.75;;;7.95;;
36215;SDS011;22257;52.232;21.084;2022-08-03T00:46:36;15.32;;;7.47;;
36215;SDS011;22257;52.232;21.084;2022-08-03T00:49:02;17.35;;;7.47;;
36215;SDS011;22257;52.232;21.084;2022-08-03T00:51:28;18.77;;;7.67;;
36215;SDS011;22257;52.232;21.084;2022-08-03T00:53:54;13.68;;;7.85;;
36215;SDS011;22257;52.232;21.084;2022-08-03T00:56:20;13.53;;;7.33;;
36215;SDS011;22257;52.232;21.084;2022-08-03T00:58:47;18.15;;;7.70;;
36215;SDS011;22257;52.232;21.084;2022-08-03T01:01:13;20.32;;;7.10;;
36215;SDS011;22257;52.232;21.084;2022-08-03T01:03:39;18.15;;;7.05;;
36215;SDS011;22257;52.232;21.084;2022-08-03T01:09:02;14.65;;;7.80;;
36215;SDS011;22257;52.232;21.084;2022-08-03T01:11:47;15.75;;;7.53;;
36215;SDS011;22257;52.232;21.084;2022-08-03T01:14:20;16.12;;;7.00;;
36215;SDS011;22257;52.232;21.084;2022-08-03T01:19:53;15.30;;;6.72;;
36215;SDS011;22257;52.232;21.084;2022-08-03T01:22:36;11.97;;;7.85;;
36215;SDS011;22257;52.232;21.084;2022-08-03T01:25:13;17.17;;;8.23;;
36215;SDS011;22257;52.232;21.084;2022-08-03T01:30:30;13.03;;;7.58;;
36215;SDS011;22257;52.232;21.084;2022-08-03T01:32:59;17.15;;;7.17;;
36215;SDS011;22257;52.232;21.084;2022-08-03T01:35:35;17.00;;;7.50;;
36215;SDS011;22257;52.232;21.084;2022-08-03T01:38:02;16.10;;;7.87;;
36215;SDS011;22257;52.232;21.084;2022-08-03T01:40:31;15.68;;;7.65;;
36215;SDS011;22257;52.232;21.084;2022-08-03T01:43:00;15.23;;;7.65;;
36215;SDS011;22257;52.232;21.084;2022-08-03T01:45:28;15.23;;;7.65;;
36215;SDS011;22257;52.232;21.084;2022-08-03T01:47:56;16.85;;;7.72;;
36215;SDS011;22257;52.232;21.084;2022-08-03T01:50:24;16.25;;;8.30;;
36215;SDS011;22257;52.232;21.084;2022-08-03T01:52:53;11.40;;;7.85;;
36215;SDS011;22257;52.232;21.084;2022-08-03T01:55:21;15.15;;;7.85;;
36215;SDS011;22257;52.232;21.084;2022-08-03T01:57:49;15.45;;;8.10;;
36215;SDS011;22257;52.232;21.084;2022-08-03T02:00:17;15.70;;;8.98;;
36215;SDS011;22257;52.232;21.084;2022-08-03T02:02:44;13.18;;;7.80;;
36215;SDS011;22257;52.232;21.084;2022-08-03T02:05:13;17.52;;;8.80;;
36215;SDS011;22257;52.232;21.084;2022-08-03T02:07:41;13.20;;;8.65;;
36215;SDS011;22257;52.232;21.084;2022-08-03T02:10:10;17.02;;;8.45;;
36215;SDS011;22257;52.232;21.084;2022-08-03T02:12:38;16.60;;;8.05;;
36215;SDS011;22257;52.232;21.084;2022-08-03T02:15:07;14.93;;;8.25;;
36215;SDS011;22257;52.232;21.084;2022-08-03T02:17:35;12.95;;;8.43;;
36215;SDS011;22257;52.232;21.084;2022-08-03T02:20:03;16.27;;;8.95;;
36215;SDS011;22257;52.232;21.084;2022-08-03T02:22:32;14.00;;;8.20;;
36215;SDS011;22257;52.232;21.084;2022-08-03T02:24:58;17.15;;;9.15;;
36215;SDS011;22257;52.232;21.084;2022-08-03T02:27:25;18.52;;;9.75;;
36215;SDS011;22257;52.232;21.084;2022-08-03T02:29:54;13.48;;;8.83;;
36215;SDS011;22257;52.232;21.084;2022-08-03T02:32:28;15.95;;;8.45;;
36215;SDS011;22257;52.232;21.084;2022-08-03T02:34:51;12.30;;;7.97;;
36215;SDS011;22257;52.232;21.084;2022-08-03T02:37:20;13.85;;;8.78;;
36215;SDS011;22257;52.232;21.084;2022-08-03T02:39:50;13.83;;;8.58;;
36215;SDS011;22257;52.232;21.084;2022-08-03T02:42:19;16.80;;;8.38;;
36215;SDS011;22257;52.232;21.084;2022-08-03T02:44:48;13.45;;;8.80;;
36215;SDS011;22257;52.232;21.084;2022-08-03T02:47:15;13.93;;;7.80;;
36215;SDS011;22257;52.232;21.084;2022-08-03T02:49:46;12.78;;;9.45;;
36215;SDS011;22257;52.232;21.084;2022-08-03T02:52:14;16.15;;;8.88;;
36215;SDS011;22257;52.232;21.084;2022-08-03T02:54:43;15.85;;;8.90;;
36215;SDS011;22257;52.232;21.084;2022-08-03T02:57:11;12.63;;;8.50;;
36215;SDS011;22257;52.232;21.084;2022-08-03T02:59:39;18.12;;;8.85;;
36215;SDS011;22257;52.232;21.084;2022-08-03T03:02:07;12.18;;;8.85;;
36215;SDS011;22257;52.232;21.084;2022-08-03T03:04:34;13.68;;;8.63;;
36215;SDS011;22257;52.232;21.084;2022-08-03T03:07:01;20.40;;;9.43;;
36215;SDS011;22257;52.232;21.084;2022-08-03T03:09:28;12.43;;;9.43;;
36215;SDS011;22257;52.232;21.084;2022-08-03T03:11:55;18.65;;;8.63;;
36215;SDS011;22257;52.232;21.084;2022-08-03T03:14:22;18.30;;;9.58;;
36215;SDS011;22257;52.232;21.084;2022-08-03T03:16:49;15.18;;;9.53;;
36215;SDS011;22257;52.232;21.084;2022-08-03T03:19:17;22.05;;;10.78;;
36215;SDS011;22257;52.232;21.084;2022-08-03T03:21:44;20.27;;;10.65;;
36215;SDS011;22257;52.232;21.084;2022-08-03T03:24:11;25.25;;;10.05;;
36215;SDS011;22257;52.232;21.084;2022-08-03T03:26:38;15.93;;;9.78;;
36215;SDS011;22257;52.232;21.084;2022-08-03T03:29:05;15.35;;;9.70;;
36215;SDS011;22257;52.232;21.084;2022-08-03T03:31:32;17.48;;;9.45;;
36215;SDS011;22257;52.232;21.084;2022-08-03T03:33:59;16.57;;;9.23;;
36215;SDS011;22257;52.232;21.084;2022-08-03T03:36:26;14.07;;;9.43;;
36215;SDS011;22257;52.232;21.084;2022-08-03T03:38:52;21.07;;;10.18;;
36215;SDS011;22257;52.232;21.084;2022-08-03T03:41:18;17.27;;;11.25;;
36215;SDS011;22257;52.232;21.084;2022-08-03T03:43:44;21.12;;;11.22;;
36215;SDS011;22257;52.232;21.084;2022-08-03T03:46:11;19.30;;;11.00;;
36215;SDS011;22257;52.232;21.084;2022-08-03T03:48:38;15.30;;;11.73;;
36215;SDS011;22257;52.232;21.084;2022-08-03T03:51:04;17.80;;;11.83;;
36215;SDS011;22257;52.232;21.084;2022-08-03T03:53:31;16.55;;;10.78;;
36215;SDS011;22257;52.232;21.084;2022-08-03T03:55:57;17.92;;;11.00;;
36215;SDS011;22257;52.232;21.084;2022-08-03T03:58:24;21.85;;;11.22;;
36215;SDS011;22257;52.232;21.084;2022-08-03T04:00:50;20.82;;;11.25;;
36215;SDS011;22257;52.232;21.084;2022-08-03T04:03:18;20.08;;;11.28;;
36215;SDS011;22257;52.232;21.084;2022-08-03T04:05:45;19.07;;;11.85;;
36215;SDS011;22257;52.232;21.084;2022-08-03T04:08:29;19.37;;;11.73;;
36215;SDS011;22257;52.232;21.084;2022-08-03T04:11:18;21.77;;;11.00;;
36215;SDS011;22257;52.232;21.084;2022-08-03T04:13:57;19.27;;;12.25;;
36215;SDS011;22257;52.232;21.084;2022-08-03T04:16:32;14.18;;;11.43;;
36215;SDS011;22257;52.232;21.084;2022-08-03T04:19:02;15.55;;;11.70;;
36215;SDS011;22257;52.232;21.084;2022-08-03T04:21:30;17.05;;;11.63;;
36215;SDS011;22257;52.232;21.084;2022-08-03T04:24:00;17.05;;;11.88;;
36215;SDS011;22257;52.232;21.084;2022-08-03T04:26:30;17.10;;;12.10;;
36215;SDS011;22257;52.232;21.084;2022-08-03T04:28:58;17.43;;;12.27;;
36215;SDS011;22257;52.232;21.084;2022-08-03T04:31:25;19.77;;;12.95;;
36215;SDS011;22257;52.232;21.084;2022-08-03T04:33:53;18.40;;;12.80;;
36215;SDS011;22257;52.232;21.084;2022-08-03T04:36:25;21.25;;;12.60;;
36215;SDS011;22257;52.232;21.084;2022-08-03T04:41:23;19.20;;;13.40;;
36215;SDS011;22257;52.232;21.084;2022-08-03T04:43:50;19.45;;;13.32;;
36215;SDS011;22257;52.232;21.084;2022-08-03T04:46:20;21.23;;;13.75;;
36215;SDS011;22257;52.232;21.084;2022-08-03T04:48:49;22.33;;;13.77;;
36215;SDS011;22257;52.232;21.084;2022-08-03T04:51:16;18.55;;;12.78;;
36215;SDS011;22257;52.232;21.084;2022-08-03T04:53:42;17.82;;;13.18;;
36215;SDS011;22257;52.232;21.084;2022-08-03T04:56:09;20.65;;;13.22;;
36215;SDS011;22257;52.232;21.084;2022-08-03T04:58:35;17.55;;;14.10;;
36215;SDS011;22257;52.232;21.084;2022-08-03T05:01:01;17.55;;;12.93;;
36215;SDS011;22257;52.232;21.084;2022-08-03T05:03:27;18.45;;;13.65;;
36215;SDS011;22257;52.232;21.084;2022-08-03T05:05:53;20.95;;;13.20;;
36215;SDS011;22257;52.232;21.084;2022-08-03T05:08:20;21.27;;;13.28;;
36215;SDS011;22257;52.232;21.084;2022-08-03T05:10:46;25.12;;;14.58;;
36215;SDS011;22257;52.232;21.084;2022-08-03T05:13:13;17.10;;;13.88;;
36215;SDS011;22257;52.232;21.084;2022-08-03T05:15:39;18.27;;;14.47;;
36215;SDS011;22257;52.232;21.084;2022-08-03T05:18:06;19.35;;;14.38;;
36215;SDS011;22257;52.232;21.084;2022-08-03T05:20:33;19.12;;;14.55;;
36215;SDS011;22257;52.232;21.084;2022-08-03T05:22:59;24.52;;;13.80;;
36215;SDS011;22257;52.232;21.084;2022-08-03T05:25:26;16.02;;;13.13;;
36215;SDS011;22257;52.232;21.084;2022-08-03T05:27:52;18.75;;;13.78;;
36215;SDS011;22257;52.232;21.084;2022-08-03T05:30:18;22.35;;;14.50;;
36215;SDS011;22257;52.232;21.084;2022-08-03T05:32:45;25.97;;;14.63;;
36215;SDS011;22257;52.232;21.084;2022-08-03T05:35:11;19.95;;;15.65;;
36215;SDS011;22257;52.232;21.084;2022-08-03T05:37:37;20.30;;;15.68;;
36215;SDS011;22257;52.232;21.084;2022-08-03T05:40:03;19.30;;;15.58;;
36215;SDS011;22257;52.232;21.084;2022-08-03T05:42:30;24.20;;;16.15;;
36215;SDS011;22257;52.232;21.084;2022-08-03T05:44:56;21.50;;;16.67;;
36215;SDS011;22257;52.232;21.084;2022-08-03T05:47:23;35.35;;;16.97;;
36215;SDS011;22257;52.232;21.084;2022-08-03T05:49:49;24.57;;;16.37;;
36215;SDS011;22257;52.232;21.084;2022-08-03T05:52:15;25.25;;;16.85;;
36215;SDS011;22257;52.232;21.084;2022-08-03T05:54:41;27.37;;;17.57;;
36215;SDS011;22257;52.232;21.084;2022-08-03T05:57:08;30.68;;;16.50;;
36215;SDS011;22257;52.232;21.084;2022-08-03T05:59:36;29.57;;;17.42;;
36215;SDS011;22257;52.232;21.084;2022-08-03T06:02:03;36.48;;;18.25;;
36215;SDS011;22257;52.232;21.084;2022-08-03T06:04:30;28.55;;;18.75;;
36215;SDS011;22257;52.232;21.084;2022-08-03T06:06:56;28.52;;;17.90;;
36215;SDS011;22257;52.232;21.084;2022-08-03T06:09:22;38.80;;;19.77;;
36215;SDS011;22257;52.232;21.084;2022-08-03T06:11:48;32.58;;;19.25;;
36215;SDS011;22257;52.232;21.084;2022-08-03T06:14:14;32.28;;;18.57;;
36215;SDS011;22257;52.232;21.084;2022-08-03T06:16:40;33.05;;;18.45;;
36215;SDS011;22257;52.232;21.084;2022-08-03T06:19:06;40.98;;;18.60;;
36215;SDS011;22257;52.232;21.084;2022-08-03T06:21:33;31.93;;;19.23;;
36215;SDS011;22257;52.232;21.084;2022-08-03T06:23:59;35.88;;;18.90;;
36215;SDS011;22257;52.232;21.084;2022-08-03T06:26:25;28.07;;;19.02;;
36215;SDS011;22257;52.232;21.084;2022-08-03T06:28:52;21.93;;;19.02;;
36215;SDS011;22257;52.232;21.084;2022-08-03T06:31:19;25.45;;;17.90;;
36215;SDS011;22257;52.232;21.084;2022-08-03T06:33:48;27.45;;;17.73;;
36215;SDS011;22257;52.232;21.084;2022-08-03T06:36:14;26.25;;;17.82;;
36215;SDS011;22257;52.232;21.084;2022-08-03T06:38:40;26.90;;;17.20;;
36215;SDS011;22257;52.232;21.084;2022-08-03T06:41:06;30.43;;;18.37;;
36215;SDS011;22257;52.232;21.084;2022-08-03T06:43:32;25.80;;;16.67;;
36215;SDS011;22257;52.232;21.084;2022-08-03T06:46:02;20.00;;;16.95;;
36215;SDS011;22257;52.232;21.084;2022-08-03T06:48:30;24.37;;;16.87;;
36215;SDS011;22257;52.232;21.084;2022-08-03T06:50:57;23.57;;;16.17;;
36215;SDS011;22257;52.232;21.084;2022-08-03T06:53:23;23.83;;;16.25;;
36215;SDS011;22257;52.232;21.084;2022-08-03T06:55:49;20.82;;;16.67;;
36215;SDS011;22257;52.232;21.084;2022-08-03T06:58:15;20.48;;;16.52;;
36215;SDS011;22257;52.232;21.084;2022-08-03T07:00:41;25.27;;;15.68;;
36215;SDS011;22257;52.232;21.084;2022-08-03T07:03:07;24.32;;;16.07;;
36215;SDS011;22257;52.232;21.084;2022-08-03T07:05:33;20.88;;;16.05;;
36215;SDS011;22257;52.232;21.084;2022-08-03T07:07:59;28.20;;;17.52;;
36215;SDS011;22257;52.232;21.084;2022-08-03T07:10:27;28.32;;;16.97;;
36215;SDS011;22257;52.232;21.084;2022-08-03T07:12:53;26.12;;;17.25;;
36215;SDS011;22257;52.232;21.084;2022-08-03T07:15:20;28.80;;;17.62;;
36215;SDS011;22257;52.232;21.084;2022-08-03T07:17:46;22.40;;;16.48;;
36215;SDS011;22257;52.232;21.084;2022-08-03T07:20:12;26.57;;;17.48;;
36215;SDS011;22257;52.232;21.084;2022-08-03T07:22:39;32.80;;;17.17;;
36215;SDS011;22257;52.232;21.084;2022-08-03T07:25:06;26.33;;;16.73;;
36215;SDS011;22257;52.232;21.084;2022-08-03T07:27:33;24.70;;;16.87;;
36215;SDS011;22257;52.232;21.084;2022-08-03T07:29:59;24.63;;;17.23;;
36215;SDS011;22257;52.232;21.084;2022-08-03T07:32:26;25.43;;;17.55;;
36215;SDS011;22257;52.232;21.084;2022-08-03T07:34:55;25.53;;;17.47;;
36215;SDS011;22257;52.232;21.084;2022-08-03T07:37:21;32.25;;;17.35;;
36215;SDS011;22257;52.232;21.084;2022-08-03T07:39:47;25.15;;;16.57;;
36215;SDS011;22257;52.232;21.084;2022-08-03T07:42:13;25.32;;;16.48;;
36215;SDS011;22257;52.232;21.084;2022-08-03T07:44:40;30.00;;;17.05;;
36215;SDS011;22257;52.232;21.084;2022-08-03T07:47:06;30.65;;;16.50;;
36215;SDS011;22257;52.232;21.084;2022-08-03T07:49:32;24.43;;;15.53;;
36215;SDS011;22257;52.232;21.084;2022-08-03T07:51:58;24.30;;;16.90;;
36215;SDS011;22257;52.232;21.084;2022-08-03T07:54:43;26.05;;;15.78;;
36215;SDS011;22257;52.232;21.084;2022-08-03T07:57:09;22.00;;;15.18;;
36215;SDS011;22257;52.232;21.084;2022-08-03T07:59:35;25.02;;;15.10;;
36215;SDS011;22257;52.232;21.084;2022-08-03T08:02:05;28.15;;;14.65;;
36215;SDS011;22257;52.232;21.084;2022-08-03T08:04:31;25.50;;;14.07;;
36215;SDS011;22257;52.232;21.084;2022-08-03T08:06:57;24.00;;;14.58;;
36215;SDS011;22257;52.232;21.084;2022-08-03T08:09:23;23.60;;;15.10;;
36215;SDS011;22257;52.232;21.084;2022-08-03T08:11:50;25.90;;;14.20;;
36215;SDS011;22257;52.232;21.084;2022-08-03T08:14:16;22.48;;;14.28;;
36215;SDS011;22257;52.232;21.084;2022-08-03T08:16:42;16.23;;;13.20;;
36215;SDS011;22257;52.232;21.084;2022-08-03T08:19:08;18.35;;;13.15;;
36215;SDS011;22257;52.232;21.084;2022-08-03T08:21:34;28.12;;;13.48;;
36215;SDS011;22257;52.232;21.084;2022-08-03T08:24:00;22.52;;;14.00;;
36215;SDS011;22257;52.232;21.084;2022-08-03T08:26:26;23.15;;;13.88;;
36215;SDS011;22257;52.232;21.084;2022-08-03T08:28:52;22.62;;;13.18;;
36215;SDS011;22257;52.232;21.084;2022-08-03T08:31:18;20.52;;;12.98;;
36215;SDS011;22257;52.232;21.084;2022-08-03T08:33:44;21.93;;;13.00;;
36215;SDS011;22257;52.232;21.084;2022-08-03T08:36:11;27.05;;;13.40;;
36215;SDS011;22257;52.232;21.084;2022-08-03T08:38:37;24.77;;;12.70;;
36215;SDS011;22257;52.232;21.084;2022-08-03T08:41:05;20.77;;;12.33;;
36215;SDS011;22257;52.232;21.084;2022-08-03T08:43:31;28.07;;;11.70;;
36215;SDS011;22257;52.232;21.084;2022-08-03T08:45:57;26.73;;;11.97;;
36215;SDS011;22257;52.232;21.084;2022-08-03T08:48:24;27.32;;;11.88;;
36215;SDS011;22257;52.232;21.084;2022-08-03T08:50:53;33.18;;;11.93;;
36215;SDS011;22257;52.232;21.084;2022-08-03T08:53:21;25.27;;;8.70;;
36215;SDS011;22257;52.232;21.084;2022-08-03T08:55:49;25.97;;;7.35;;
36215;SDS011;22257;52.232;21.084;2022-08-03T08:58:18;16.73;;;6.95;;
36215;SDS011;22257;52.232;21.084;2022-08-03T09:00:46;18.02;;;6.35;;
36215;SDS011;22257;52.232;21.084;2022-08-03T09:03:13;18.00;;;5.55;;
36215;SDS011;22257;52.232;21.084;2022-08-03T09:05:43;23.83;;;6.28;;
36215;SDS011;22257;52.232;21.084;2022-08-03T09:08:08;19.65;;;5.12;;
36215;SDS011;22257;52.232;21.084;2022-08-03T09:10:34;11.30;;;5.15;;
36215;SDS011;22257;52.232;21.084;2022-08-03T09:13:00;8.85;;;5.12;;
36215;SDS011;22257;52.232;21.084;2022-08-03T09:15:28;10.72;;;4.80;;
36215;SDS011;22257;52.232;21.084;2022-08-03T09:18:00;14.07;;;5.22;;
36215;SDS011;22257;52.232;21.084;2022-08-03T09:20:28;17.07;;;4.97;;
36215;SDS011;22257;52.232;21.084;2022-08-03T09:23:06;16.67;;;5.40;;
36215;SDS011;22257;52.232;21.084;2022-08-03T09:25:38;15.72;;;5.70;;
36215;SDS011;22257;52.232;21.084;2022-08-03T09:28:10;16.40;;;6.25;;
36215;SDS011;22257;52.232;21.084;2022-08-03T09:30:39;14.07;;;6.10;;
36215;SDS011;22257;52.232;21.084;2022-08-03T09:33:08;21.73;;;6.33;;
36215;SDS011;22257;52.232;21.084;2022-08-03T09:35:40;16.50;;;6.97;;
36215;SDS011;22257;52.232;21.084;2022-08-03T09:40:50;14.68;;;6.87;;
36215;SDS011;22257;52.232;21.084;2022-08-03T09:43:17;16.50;;;6.45;;
36215;SDS011;22257;52.232;21.084;2022-08-03T09:45:44;17.07;;;6.45;;
36215;SDS011;22257;52.232;21.084;2022-08-03T09:48:21;19.50;;;5.42;;
36215;SDS011;22257;52.232;21.084;2022-08-03T09:50:52;14.23;;;5.47;;
36215;SDS011;22257;52.232;21.084;2022-08-03T09:53:20;19.15;;;6.25;;
36215;SDS011;22257;52.232;21.084;2022-08-03T09:58:20;15.88;;;6.35;;
36215;SDS011;22257;52.232;21.084;2022-08-03T10:01:03;13.65;;;5.25;;
36215;SDS011;22257;52.232;21.084;2022-08-03T10:03:31;16.70;;;5.67;;
36215;SDS011;22257;52.232;21.084;2022-08-03T10:05:59;20.20;;;6.12;;
36215;SDS011;22257;52.232;21.084;2022-08-03T10:08:41;13.85;;;5.58;;
36215;SDS011;22257;52.232;21.084;2022-08-03T10:11:07;11.33;;;5.37;;
36215;SDS011;22257;52.232;21.084;2022-08-03T10:13:34;13.05;;;5.97;;
36215;SDS011;22257;52.232;21.084;2022-08-03T10:16:01;13.88;;;5.40;;
36215;SDS011;22257;52.232;21.084;2022-08-03T10:18:29;14.47;;;5.78;;
36215;SDS011;22257;52.232;21.084;2022-08-03T10:20:58;14.53;;;5.40;;
36215;SDS011;22257;52.232;21.084;2022-08-03T10:23:26;22.73;;;5.40;;
36215;SDS011;22257;52.232;21.084;2022-08-03T10:25:54;12.55;;;5.28;;
36215;SDS011;22257;52.232;21.084;2022-08-03T10:28:23;15.38;;;5.25;;
36215;SDS011;22257;52.232;21.084;2022-08-03T10:30:50;14.65;;;5.30;;
36215;SDS011;22257;52.232;21.084;2022-08-03T10:33:20;13.00;;;5.08;;
36215;SDS011;22257;52.232;21.084;2022-08-03T10:35:53;14.28;;;4.50;;
36215;SDS011;22257;52.232;21.084;2022-08-03T10:38:26;15.75;;;5.15;;
36215;SDS011;22257;52.232;21.084;2022-08-03T10:40:53;11.08;;;4.80;;
36215;SDS011;22257;52.232;21.084;2022-08-03T10:43:21;13.68;;;5.20;;
36215;SDS011;22257;52.232;21.084;2022-08-03T10:45:50;8.50;;;4.53;;
36215;SDS011;22257;52.232;21.084;2022-08-03T10:48:17;11.35;;;4.12;;
36215;SDS011;22257;52.232;21.084;2022-08-03T10:50:45;11.80;;;4.90;;
36215;SDS011;22257;52.232;21.084;2022-08-03T10:53:13;9.40;;;3.90;;
36215;SDS011;22257;52.232;21.084;2022-08-03T10:55:40;12.98;;;4.37;;
36215;SDS011;22257;52.232;21.084;2022-08-03T11:01:06;10.63;;;4.03;;
36215;SDS011;22257;52.232;21.084;2022-08-03T11:04:13;13.65;;;4.28;;
36215;SDS011;22257;52.232;21.084;2022-08-03T11:06:19;8.13;;;3.85;;
36215;SDS011;22257;52.232;21.084;2022-08-03T11:08:48;12.33;;;5.10;;
36215;SDS011;22257;52.232;21.084;2022-08-03T11:14:03;7.97;;;4.78;;
36215;SDS011;22257;52.232;21.084;2022-08-03T11:16:35;10.13;;;4.50;;
36215;SDS011;22257;52.232;21.084;2022-08-03T11:19:10;12.90;;;5.30;;
36215;SDS011;22257;52.232;21.084;2022-08-03T11:32:53;11.73;;;3.92;;
36215;SDS011;22257;52.232;21.084;2022-08-03T11:35:21;11.33;;;4.65;;
36215;SDS011;22257;52.232;21.084;2022-08-03T11:46:00;5.35;;;3.45;;
36215;SDS011;22257;52.232;21.084;2022-08-03T11:48:40;7.05;;;3.50;;
36215;SDS011;22257;52.232;21.084;2022-08-03T11:51:17;10.15;;;3.37;;
36215;SDS011;22257;52.232;21.084;2022-08-03T11:53:46;13.38;;;4.05;;
36215;SDS011;22257;52.232;21.084;2022-08-03T11:56:19;11.15;;;4.65;;
36215;SDS011;22257;52.232;21.084;2022-08-03T11:58:45;10.78;;;3.90;;
36215;SDS011;22257;52.232;21.084;2022-08-03T12:01:16;15.23;;;4.20;;
36215;SDS011;22257;52.232;21.084;2022-08-03T12:03:43;10.43;;;3.92;;
36215;SDS011;22257;52.232;21.084;2022-08-03T12:06:10;12.30;;;4.20;;
36215;SDS011;22257;52.232;21.084;2022-08-03T12:08:39;9.30;;;4.47;;
36215;SDS011;22257;52.232;21.084;2022-08-03T12:11:07;14.75;;;3.60;;
36215;SDS011;22257;52.232;21.084;2022-08-03T12:13:39;9.40;;;3.98;;
36215;SDS011;22257;52.232;21.084;2022-08-03T12:16:21;8.80;;;3.83;;
36215;SDS011;22257;52.232;21.084;2022-08-03T12:18:59;11.60;;;3.55;;
36215;SDS011;22257;52.232;21.084;2022-08-03T12:21:27;9.75;;;3.83;;
36215;SDS011;22257;52.232;21.084;2022-08-03T12:24:00;9.73;;;3.53;;
36215;SDS011;22257;52.232;21.084;2022-08-03T12:26:29;9.68;;;3.67;;
36215;SDS011;22257;52.232;21.084;2022-08-03T12:28:57;10.43;;;3.75;;
36215;SDS011;22257;52.232;21.084;2022-08-03T12:31:23;12.53;;;3.60;;
36215;SDS011;22257;52.232;21.084;2022-08-03T12:33:54;7.53;;;3.58;;
36215;SDS011;22257;52.232;21.084;2022-08-03T12:36:22;11.40;;;4.03;;
36215;SDS011;22257;52.232;21.084;2022-08-03T12:38:56;5.97;;;3.10;;
36215;SDS011;22257;52.232;21.084;2022-08-03T12:41:27;6.80;;;3.70;;
36215;SDS011;22257;52.232;21.084;2022-08-03T12:43:56;7.78;;;3.77;;
36215;SDS011;22257;52.232;21.084;2022-08-03T12:46:28;6.90;;;4.00;;
36215;SDS011;22257;52.232;21.084;2022-08-03T12:49:14;11.48;;;3.05;;
36215;SDS011;22257;52.232;21.084;2022-08-03T12:51:32;7.60;;;3.17;;
36215;SDS011;22257;52.232;21.084;2022-08-03T12:54:01;7.47;;;3.00;;
36215;SDS011;22257;52.232;21.084;2022-08-03T12:56:28;7.97;;;3.30;;
36215;SDS011;22257;52.232;21.084;2022-08-03T12:58:54;11.83;;;3.30;;
36215;SDS011;22257;52.232;21.084;2022-08-03T13:01:20;12.13;;;3.98;;
36215;SDS011;22257;52.232;21.084;2022-08-03T13:03:51;9.58;;;3.52;;
36215;SDS011;22257;52.232;21.084;2022-08-03T13:06:24;9.68;;;3.40;;
36215;SDS011;22257;52.232;21.084;2022-08-03T13:09:02;6.30;;;3.05;;
36215;SDS011;22257;52.232;21.084;2022-08-03T13:11:30;9.53;;;3.33;;
36215;SDS011;22257;52.232;21.084;2022-08-03T13:13:56;11.08;;;2.98;;
36215;SDS011;22257;52.232;21.084;2022-08-03T13:16:22;9.73;;;2.98;;
36215;SDS011;22257;52.232;21.084;2022-08-03T13:18:49;9.10;;;3.15;;
36215;SDS011;22257;52.232;21.084;2022-08-03T13:21:17;7.03;;;3.10;;
36215;SDS011;22257;52.232;21.084;2022-08-03T13:23:45;11.18;;;3.37;;
36215;SDS011;22257;52.232;21.084;2022-08-03T13:26:11;8.18;;;3.20;;
36215;SDS011;22257;52.232;21.084;2022-08-03T13:28:38;15.23;;;3.58;;
36215;SDS011;22257;52.232;21.084;2022-08-03T13:31:05;9.58;;;3.35;;
36215;SDS011;22257;52.232;21.084;2022-08-03T13:33:32;6.28;;;3.22;;
36215;SDS011;22257;52.232;21.084;2022-08-03T13:35:58;5.42;;;2.75;;
36215;SDS011;22257;52.232;21.084;2022-08-03T13:38:24;8.53;;;3.12;;
36215;SDS011;22257;52.232;21.084;2022-08-03T13:40:51;5.17;;;3.22;;
36215;SDS011;22257;52.232;21.084;2022-08-03T13:43:18;9.68;;;2.92;;
36215;SDS011;22257;52.232;21.084;2022-08-03T13:45:46;10.35;;;3.50;;
36215;SDS011;22257;52.232;21.084;2022-08-03T13:48:12;6.62;;;3.20;;
36215;SDS011;22257;52.232;21.084;2022-08-03T13:50:38;9.90;;;3.37;;
36215;SDS011;22257;52.232;21.084;2022-08-03T13:53:04;5.75;;;3.30;;
36215;SDS011;22257;52.232;21.084;2022-08-03T13:55:30;6.10;;;3.30;;
36215;SDS011;22257;52.232;21.084;2022-08-03T13:57:56;7.78;;;3.35;;
36215;SDS011;22257;52.232;21.084;2022-08-03T14:00:22;9.25;;;3.50;;
36215;SDS011;22257;52.232;21.084;2022-08-03T14:02:50;6.10;;;3.27;;
36215;SDS011;22257;52.232;21.084;2022-08-03T14:05:17;7.67;;;3.20;;
36215;SDS011;22257;52.232;21.084;2022-08-03T14:07:43;7.72;;;3.47;;
36215;SDS011;22257;52.232;21.084;2022-08-03T14:10:09;10.15;;;3.77;;
36215;SDS011;22257;52.232;21.084;2022-08-03T14:12:35;7.90;;;3.50;;
36215;SDS011;22257;52.232;21.084;2022-08-03T14:15:01;6.60;;;3.22;;
36215;SDS011;22257;52.232;21.084;2022-08-03T14:17:28;10.45;;;3.20;;
36215;SDS011;22257;52.232;21.084;2022-08-03T14:19:54;10.63;;;2.85;;
36215;SDS011;22257;52.232;21.084;2022-08-03T14:22:20;9.98;;;3.15;;
36215;SDS011;22257;52.232;21.084;2022-08-03T14:24:46;5.70;;;3.17;;
36215;SDS011;22257;52.232;21.084;2022-08-03T14:27:12;9.40;;;3.30;;
36215;SDS011;22257;52.232;21.084;2022-08-03T14:29:38;12.47;;;3.10;;
36215;SDS011;22257;52.232;21.084;2022-08-03T14:32:05;7.28;;;2.80;;
36215;SDS011;22257;52.232;21.084;2022-08-03T14:34:31;8.03;;;3.20;;
36215;SDS011;22257;52.232;21.084;2022-08-03T14:36:57;6.17;;;2.85;;
36215;SDS011;22257;52.232;21.084;2022-08-03T14:39:23;13.15;;;3.05;;
36215;SDS011;22257;52.232;21.084;2022-08-03T14:41:49;7.03;;;3.12;;
36215;SDS011;22257;52.232;21.084;2022-08-03T14:44:15;6.47;;;2.70;;
36215;SDS011;22257;52.232;21.084;2022-08-03T14:46:42;10.35;;;2.87;;
36215;SDS011;22257;52.232;21.084;2022-08-03T14:49:08;5.85;;;2.95;;
36215;SDS011;22257;52.232;21.084;2022-08-03T14:51:34;4.55;;;3.15;;
36215;SDS011;22257;52.232;21.084;2022-08-03T14:54:00;5.47;;;2.90;;
36215;SDS011;22257;52.232;21.084;2022-08-03T14:56:26;8.45;;;3.00;;
36215;SDS011;22257;52.232;21.084;2022-08-03T14:58:52;6.87;;;2.98;;
36215;SDS011;22257;52.232;21.084;2022-08-03T15:01:18;4.50;;;3.05;;
36215;SDS011;22257;52.232;21.084;2022-08-03T15:03:44;5.80;;;3.20;;